sensor_id;sensor_type;location;lat;lon;timestamp;P1;durP1;ratioP1;P2;durP2;ratioP2
49139;SDS011;34959;49.310;8.646;2024-02-04T00:00:52;2.95;;;0.40;;
49139;SDS011;34959;49.310;8.646;2024-02-04T00:03:18;13.63;;;0.85;;
49139;SDS011;34959;49.310;8.646;2024-02-04T00:05:44;1.02;;;0.52;;
49139;SDS011;34959;49.310;8.646;2024-02-04T00:08:10;1.75;;;0.40;;
49139;SDS011;34959;49.310;8.646;2024-02-04T00:10:37;2.13;;;0.40;;
49139;SDS011;34959;49.310;8.646;2024-02-04T00:13:03;2.45;;;0.65;;
49139;SDS011;34959;49.310;8.646;2024-02-04T00:15:28;5.22;;;0.55;;
49139;SDS011;34959;49.310;8.646;2024-02-04T00:17:54;4.63;;;0.63;;
49139;SDS011;34959;49.310;8.646;2024-02-04T00:20:19;1.55;;;0.52;;
49139;SDS011;34959;49.310;8.646;2024-02-04T00:22:44;3.85;;;0.63;;
49139;SDS011;34959;49.310;8.646;2024-02-04T00:25:10;3.97;;;0.82;;
49139;SDS011;34959;49.310;8.646;2024-02-04T00:27:36;1.63;;;0.50;;
49139;SDS011;34959;49.310;8.646;2024-02-04T00:30:02;4.22;;;0.55;;
49139;SDS011;34959;49.310;8.646;2024-02-04T00:32:28;0.70;;;0.35;;
49139;SDS011;34959;49.310;8.646;2024-02-04T00:34:56;4.68;;;0.43;;
49139;SDS011;34959;49.310;8.646;2024-02-04T00:37:22;0.88;;;0.50;;
49139;SDS011;34959;49.310;8.646;2024-02-04T00:39:47;2.20;;;0.38;;
49139;SDS011;34959;49.310;8.646;2024-02-04T00:42:12;3.92;;;0.60;;
49139;SDS011;34959;49.310;8.646;2024-02-04T00:44:38;4.93;;;0.70;;
49139;SDS011;34959;49.310;8.646;2024-02-04T00:47:03;4.20;;;0.60;;
49139;SDS011;34959;49.310;8.646;2024-02-04T00:49:29;1.00;;;0.40;;
49139;SDS011;34959;49.310;8.646;2024-02-04T00:51:54;0.77;;;0.40;;
49139;SDS011;34959;49.310;8.646;2024-02-04T00:54:19;1.35;;;0.50;;
49139;SDS011;34959;49.310;8.646;2024-02-04T00:56:45;3.25;;;0.55;;
49139;SDS011;34959;49.310;8.646;2024-02-04T00:59:10;1.13;;;0.50;;
49139;SDS011;34959;49.310;8.646;2024-02-04T01:01:37;1.35;;;0.45;;
49139;SDS011;34959;49.310;8.646;2024-02-04T01:04:02;1.33;;;0.47;;
49139;SDS011;34959;49.310;8.646;2024-02-04T01:06:28;22.00;;;0.90;;
49139;SDS011;34959;49.310;8.646;2024-02-04T01:08:55;12.77;;;0.80;;
49139;SDS011;34959;49.310;8.646;2024-02-04T01:11:23;5.05;;;1.00;;
49139;SDS011;34959;49.310;8.646;2024-02-04T01:13:49;5.65;;;0.68;;
49139;SDS011;34959;49.310;8.646;2024-02-04T01:16:14;10.60;;;0.70;;
49139;SDS011;34959;49.310;8.646;2024-02-04T01:18:40;7.57;;;0.60;;
49139;SDS011;34959;49.310;8.646;2024-02-04T01:21:05;5.65;;;0.60;;
49139;SDS011;34959;49.310;8.646;2024-02-04T01:23:30;5.50;;;1.02;;
49139;SDS011;34959;49.310;8.646;2024-02-04T01:25:56;1.98;;;0.55;;
49139;SDS011;34959;49.310;8.646;2024-02-04T01:28:22;1.55;;;0.38;;
49139;SDS011;34959;49.310;8.646;2024-02-04T01:30:47;0.82;;;0.50;;
49139;SDS011;34959;49.310;8.646;2024-02-04T01:33:12;0.63;;;0.43;;
49139;SDS011;34959;49.310;8.646;2024-02-04T01:35:38;3.50;;;0.47;;
49139;SDS011;34959;49.310;8.646;2024-02-04T01:38:03;1.85;;;0.45;;
49139;SDS011;34959;49.310;8.646;2024-02-04T01:40:29;2.88;;;0.40;;
49139;SDS011;34959;49.310;8.646;2024-02-04T01:42:54;0.50;;;0.40;;
49139;SDS011;34959;49.310;8.646;2024-02-04T01:45:21;0.60;;;0.40;;
49139;SDS011;34959;49.310;8.646;2024-02-04T01:47:46;1.52;;;0.60;;
49139;SDS011;34959;49.310;8.646;2024-02-04T01:50:12;1.50;;;0.73;;
49139;SDS011;34959;49.310;8.646;2024-02-04T01:52:39;2.20;;;0.40;;
49139;SDS011;34959;49.310;8.646;2024-02-04T01:55:05;2.72;;;0.40;;
49139;SDS011;34959;49.310;8.646;2024-02-04T01:57:31;0.65;;;0.40;;
49139;SDS011;34959;49.310;8.646;2024-02-04T01:59:57;1.00;;;0.40;;
49139;SDS011;34959;49.310;8.646;2024-02-04T02:02:23;1.67;;;0.50;;
49139;SDS011;34959;49.310;8.646;2024-02-04T02:04:49;0.70;;;0.40;;
49139;SDS011;34959;49.310;8.646;2024-02-04T02:07:15;1.40;;;0.30;;
49139;SDS011;34959;49.310;8.646;2024-02-04T02:09:45;1.35;;;0.47;;
49139;SDS011;34959;49.310;8.646;2024-02-04T02:14:42;3.35;;;0.57;;
49139;SDS011;34959;49.310;8.646;2024-02-04T02:17:15;1.15;;;0.50;;
49139;SDS011;34959;49.310;8.646;2024-02-04T02:19:46;1.83;;;0.60;;
49139;SDS011;34959;49.310;8.646;2024-02-04T02:22:21;0.95;;;0.40;;
49139;SDS011;34959;49.310;8.646;2024-02-04T02:24:51;1.55;;;0.47;;
49139;SDS011;34959;49.310;8.646;2024-02-04T02:27:17;1.10;;;0.60;;
49139;SDS011;34959;49.310;8.646;2024-02-04T02:29:42;3.17;;;0.70;;
49139;SDS011;34959;49.310;8.646;2024-02-04T02:32:07;2.67;;;0.90;;
49139;SDS011;34959;49.310;8.646;2024-02-04T02:34:33;1.20;;;0.52;;
49139;SDS011;34959;49.310;8.646;2024-02-04T02:37:03;2.65;;;0.50;;
49139;SDS011;34959;49.310;8.646;2024-02-04T02:40:01;1.80;;;0.68;;
49139;SDS011;34959;49.310;8.646;2024-02-04T02:42:47;0.88;;;0.30;;
49139;SDS011;34959;49.310;8.646;2024-02-04T02:45:13;1.92;;;0.82;;
49139;SDS011;34959;49.310;8.646;2024-02-04T02:47:39;1.90;;;0.60;;
49139;SDS011;34959;49.310;8.646;2024-02-04T02:50:05;1.63;;;0.60;;
49139;SDS011;34959;49.310;8.646;2024-02-04T02:52:31;7.15;;;0.50;;
49139;SDS011;34959;49.310;8.646;2024-02-04T02:54:56;4.00;;;0.50;;
49139;SDS011;34959;49.310;8.646;2024-02-04T02:57:21;1.55;;;0.60;;
49139;SDS011;34959;49.310;8.646;2024-02-04T02:59:47;2.47;;;0.52;;
49139;SDS011;34959;49.310;8.646;2024-02-04T03:02:12;1.23;;;0.30;;
49139;SDS011;34959;49.310;8.646;2024-02-04T03:04:39;1.10;;;0.50;;
49139;SDS011;34959;49.310;8.646;2024-02-04T03:07:04;0.88;;;0.30;;
49139;SDS011;34959;49.310;8.646;2024-02-04T03:09:31;0.43;;;0.35;;
49139;SDS011;34959;49.310;8.646;2024-02-04T03:11:56;1.27;;;0.52;;
49139;SDS011;34959;49.310;8.646;2024-02-04T03:14:22;1.33;;;0.45;;
49139;SDS011;34959;49.310;8.646;2024-02-04T03:16:47;3.05;;;0.80;;
49139;SDS011;34959;49.310;8.646;2024-02-04T03:19:13;1.45;;;0.50;;
49139;SDS011;34959;49.310;8.646;2024-02-04T03:21:38;0.95;;;0.40;;
49139;SDS011;34959;49.310;8.646;2024-02-04T03:24:03;0.45;;;0.40;;
49139;SDS011;34959;49.310;8.646;2024-02-04T03:26:29;4.65;;;0.52;;
49139;SDS011;34959;49.310;8.646;2024-02-04T03:28:54;3.38;;;0.57;;
49139;SDS011;34959;49.310;8.646;2024-02-04T03:31:20;0.60;;;0.50;;
49139;SDS011;34959;49.310;8.646;2024-02-04T03:33:46;1.48;;;0.50;;
49139;SDS011;34959;49.310;8.646;2024-02-04T03:36:12;1.75;;;0.60;;
49139;SDS011;34959;49.310;8.646;2024-02-04T03:38:39;0.85;;;0.40;;
49139;SDS011;34959;49.310;8.646;2024-02-04T03:41:04;1.35;;;0.38;;
49139;SDS011;34959;49.310;8.646;2024-02-04T03:43:30;0.80;;;0.50;;
49139;SDS011;34959;49.310;8.646;2024-02-04T03:45:55;0.95;;;0.45;;
49139;SDS011;34959;49.310;8.646;2024-02-04T03:48:21;0.77;;;0.50;;
49139;SDS011;34959;49.310;8.646;2024-02-04T03:50:46;1.98;;;0.57;;
49139;SDS011;34959;49.310;8.646;2024-02-04T03:53:11;1.20;;;0.60;;
49139;SDS011;34959;49.310;8.646;2024-02-04T03:55:37;0.60;;;0.40;;
49139;SDS011;34959;49.310;8.646;2024-02-04T03:58:02;2.97;;;0.57;;
49139;SDS011;34959;49.310;8.646;2024-02-04T04:00:28;3.63;;;0.57;;
49139;SDS011;34959;49.310;8.646;2024-02-04T04:02:53;0.60;;;0.40;;
49139;SDS011;34959;49.310;8.646;2024-02-04T04:05:18;0.77;;;0.32;;
49139;SDS011;34959;49.310;8.646;2024-02-04T04:07:44;2.60;;;0.50;;
49139;SDS011;34959;49.310;8.646;2024-02-04T04:10:09;0.60;;;0.40;;
49139;SDS011;34959;49.310;8.646;2024-02-04T04:12:35;0.88;;;0.55;;
49139;SDS011;34959;49.310;8.646;2024-02-04T04:15:00;1.75;;;0.45;;
49139;SDS011;34959;49.310;8.646;2024-02-04T04:17:25;1.90;;;0.47;;
49139;SDS011;34959;49.310;8.646;2024-02-04T04:19:51;1.85;;;0.68;;
49139;SDS011;34959;49.310;8.646;2024-02-04T04:22:16;1.05;;;0.50;;
49139;SDS011;34959;49.310;8.646;2024-02-04T04:24:42;0.95;;;0.30;;
49139;SDS011;34959;49.310;8.646;2024-02-04T04:27:07;0.98;;;0.60;;
49139;SDS011;34959;49.310;8.646;2024-02-04T04:29:32;1.17;;;0.40;;
49139;SDS011;34959;49.310;8.646;2024-02-04T04:31:58;0.88;;;0.52;;
49139;SDS011;34959;49.310;8.646;2024-02-04T04:34:23;2.50;;;0.50;;
49139;SDS011;34959;49.310;8.646;2024-02-04T04:36:49;3.97;;;0.47;;
49139;SDS011;34959;49.310;8.646;2024-02-04T04:39:14;0.98;;;0.63;;
49139;SDS011;34959;49.310;8.646;2024-02-04T04:41:40;1.65;;;0.40;;
49139;SDS011;34959;49.310;8.646;2024-02-04T04:44:07;2.30;;;0.65;;
49139;SDS011;34959;49.310;8.646;2024-02-04T04:46:32;3.88;;;0.60;;
49139;SDS011;34959;49.310;8.646;2024-02-04T04:48:57;0.82;;;0.43;;
49139;SDS011;34959;49.310;8.646;2024-02-04T04:51:23;0.38;;;0.30;;
49139;SDS011;34959;49.310;8.646;2024-02-04T04:53:49;0.80;;;0.50;;
49139;SDS011;34959;49.310;8.646;2024-02-04T04:56:14;6.45;;;0.70;;
49139;SDS011;34959;49.310;8.646;2024-02-04T04:58:40;7.80;;;0.63;;
49139;SDS011;34959;49.310;8.646;2024-02-04T05:01:05;5.72;;;0.68;;
49139;SDS011;34959;49.310;8.646;2024-02-04T05:03:31;1.08;;;0.30;;
49139;SDS011;34959;49.310;8.646;2024-02-04T05:05:56;0.95;;;0.30;;
49139;SDS011;34959;49.310;8.646;2024-02-04T05:08:22;1.25;;;0.57;;
49139;SDS011;34959;49.310;8.646;2024-02-04T05:10:47;0.60;;;0.38;;
49139;SDS011;34959;49.310;8.646;2024-02-04T05:13:12;2.17;;;0.50;;
49139;SDS011;34959;49.310;8.646;2024-02-04T05:15:38;3.80;;;0.60;;
49139;SDS011;34959;49.310;8.646;2024-02-04T05:18:03;5.38;;;0.60;;
49139;SDS011;34959;49.310;8.646;2024-02-04T05:20:29;11.20;;;0.85;;
49139;SDS011;34959;49.310;8.646;2024-02-04T05:22:54;2.45;;;0.57;;
49139;SDS011;34959;49.310;8.646;2024-02-04T05:25:22;0.50;;;0.35;;
49139;SDS011;34959;49.310;8.646;2024-02-04T05:27:47;0.95;;;0.30;;
49139;SDS011;34959;49.310;8.646;2024-02-04T05:30:13;1.17;;;0.50;;
49139;SDS011;34959;49.310;8.646;2024-02-04T05:32:39;2.60;;;0.50;;
49139;SDS011;34959;49.310;8.646;2024-02-04T05:35:04;0.68;;;0.38;;
49139;SDS011;34959;49.310;8.646;2024-02-04T05:37:29;0.93;;;0.43;;
49139;SDS011;34959;49.310;8.646;2024-02-04T05:39:55;1.63;;;0.50;;
49139;SDS011;34959;49.310;8.646;2024-02-04T05:42:20;2.40;;;0.50;;
49139;SDS011;34959;49.310;8.646;2024-02-04T05:44:46;1.35;;;0.50;;
49139;SDS011;34959;49.310;8.646;2024-02-04T05:47:11;0.60;;;0.40;;
49139;SDS011;34959;49.310;8.646;2024-02-04T05:49:36;2.65;;;0.30;;
49139;SDS011;34959;49.310;8.646;2024-02-04T05:52:02;1.10;;;0.47;;
49139;SDS011;34959;49.310;8.646;2024-02-04T05:54:27;0.93;;;0.30;;
49139;SDS011;34959;49.310;8.646;2024-02-04T05:56:53;0.85;;;0.40;;
49139;SDS011;34959;49.310;8.646;2024-02-04T05:59:18;1.00;;;0.30;;
49139;SDS011;34959;49.310;8.646;2024-02-04T06:01:44;1.23;;;0.70;;
49139;SDS011;34959;49.310;8.646;2024-02-04T06:04:10;0.50;;;0.38;;
49139;SDS011;34959;49.310;8.646;2024-02-04T06:06:35;1.75;;;0.40;;
49139;SDS011;34959;49.310;8.646;2024-02-04T06:09:01;12.68;;;0.70;;
49139;SDS011;34959;49.310;8.646;2024-02-04T06:11:26;2.42;;;0.57;;
49139;SDS011;34959;49.310;8.646;2024-02-04T06:13:52;4.28;;;0.68;;
49139;SDS011;34959;49.310;8.646;2024-02-04T06:16:17;2.88;;;0.40;;
49139;SDS011;34959;49.310;8.646;2024-02-04T06:18:42;1.85;;;0.50;;
49139;SDS011;34959;49.310;8.646;2024-02-04T06:21:08;1.20;;;0.40;;
49139;SDS011;34959;49.310;8.646;2024-02-04T06:23:33;0.73;;;0.30;;
49139;SDS011;34959;49.310;8.646;2024-02-04T06:26:02;1.92;;;0.32;;
49139;SDS011;34959;49.310;8.646;2024-02-04T06:28:28;1.70;;;0.43;;
49139;SDS011;34959;49.310;8.646;2024-02-04T06:30:53;2.80;;;0.40;;
49139;SDS011;34959;49.310;8.646;2024-02-04T06:33:19;4.65;;;0.60;;
49139;SDS011;34959;49.310;8.646;2024-02-04T06:35:44;12.80;;;1.67;;
49139;SDS011;34959;49.310;8.646;2024-02-04T06:38:10;6.20;;;0.85;;
49139;SDS011;34959;49.310;8.646;2024-02-04T06:40:35;4.15;;;0.80;;
49139;SDS011;34959;49.310;8.646;2024-02-04T06:43:00;1.67;;;0.40;;
49139;SDS011;34959;49.310;8.646;2024-02-04T06:45:26;2.47;;;0.57;;
49139;SDS011;34959;49.310;8.646;2024-02-04T06:47:51;0.57;;;0.40;;
49139;SDS011;34959;49.310;8.646;2024-02-04T06:50:17;1.10;;;0.50;;
49139;SDS011;34959;49.310;8.646;2024-02-04T06:52:42;1.10;;;0.50;;
49139;SDS011;34959;49.310;8.646;2024-02-04T06:55:08;0.57;;;0.30;;
49139;SDS011;34959;49.310;8.646;2024-02-04T06:57:34;4.75;;;0.77;;
49139;SDS011;34959;49.310;8.646;2024-02-04T07:00:00;2.63;;;0.40;;
49139;SDS011;34959;49.310;8.646;2024-02-04T07:02:25;1.75;;;0.65;;
49139;SDS011;34959;49.310;8.646;2024-02-04T07:04:51;5.53;;;0.63;;
49139;SDS011;34959;49.310;8.646;2024-02-04T07:07:16;6.30;;;0.45;;
49139;SDS011;34959;49.310;8.646;2024-02-04T07:09:41;1.05;;;0.50;;
49139;SDS011;34959;49.310;8.646;2024-02-04T07:12:07;2.92;;;0.65;;
49139;SDS011;34959;49.310;8.646;2024-02-04T07:14:32;1.33;;;0.40;;
49139;SDS011;34959;49.310;8.646;2024-02-04T07:16:57;1.00;;;0.40;;
49139;SDS011;34959;49.310;8.646;2024-02-04T07:19:23;1.73;;;0.57;;
49139;SDS011;34959;49.310;8.646;2024-02-04T07:21:48;3.50;;;0.80;;
49139;SDS011;34959;49.310;8.646;2024-02-04T07:24:14;1.73;;;0.43;;
49139;SDS011;34959;49.310;8.646;2024-02-04T07:26:39;5.03;;;0.50;;
49139;SDS011;34959;49.310;8.646;2024-02-04T07:29:04;1.00;;;0.40;;
49139;SDS011;34959;49.310;8.646;2024-02-04T07:31:30;2.47;;;0.43;;
49139;SDS011;34959;49.310;8.646;2024-02-04T07:33:55;0.57;;;0.40;;
49139;SDS011;34959;49.310;8.646;2024-02-04T07:36:21;1.95;;;0.40;;
49139;SDS011;34959;49.310;8.646;2024-02-04T07:38:46;4.63;;;0.50;;
49139;SDS011;34959;49.310;8.646;2024-02-04T07:41:14;1.38;;;0.55;;
49139;SDS011;34959;49.310;8.646;2024-02-04T07:43:40;1.17;;;0.45;;
49139;SDS011;34959;49.310;8.646;2024-02-04T07:46:07;2.20;;;0.47;;
49139;SDS011;34959;49.310;8.646;2024-02-04T07:48:33;2.20;;;0.47;;
49139;SDS011;34959;49.310;8.646;2024-02-04T07:50:58;1.23;;;0.40;;
49139;SDS011;34959;49.310;8.646;2024-02-04T07:53:24;0.93;;;0.40;;
49139;SDS011;34959;49.310;8.646;2024-02-04T07:55:50;1.10;;;0.30;;
49139;SDS011;34959;49.310;8.646;2024-02-04T07:58:16;1.77;;;0.40;;
49139;SDS011;34959;49.310;8.646;2024-02-04T08:00:41;1.13;;;0.45;;
49139;SDS011;34959;49.310;8.646;2024-02-04T08:03:06;0.85;;;0.40;;
49139;SDS011;34959;49.310;8.646;2024-02-04T08:05:32;10.75;;;1.35;;
49139;SDS011;34959;49.310;8.646;2024-02-04T08:08:00;1.70;;;0.52;;
49139;SDS011;34959;49.310;8.646;2024-02-04T08:10:25;3.85;;;0.40;;
49139;SDS011;34959;49.310;8.646;2024-02-04T08:12:51;0.82;;;0.50;;
49139;SDS011;34959;49.310;8.646;2024-02-04T08:15:18;2.05;;;0.40;;
49139;SDS011;34959;49.310;8.646;2024-02-04T08:17:43;1.40;;;0.50;;
49139;SDS011;34959;49.310;8.646;2024-02-04T08:20:09;4.32;;;0.40;;
49139;SDS011;34959;49.310;8.646;2024-02-04T08:22:35;0.98;;;0.30;;
49139;SDS011;34959;49.310;8.646;2024-02-04T08:25:00;3.22;;;0.50;;
49139;SDS011;34959;49.310;8.646;2024-02-04T08:27:26;1.33;;;0.40;;
49139;SDS011;34959;49.310;8.646;2024-02-04T08:29:52;3.92;;;0.57;;
49139;SDS011;34959;49.310;8.646;2024-02-04T08:32:17;3.03;;;0.70;;
49139;SDS011;34959;49.310;8.646;2024-02-04T08:34:42;2.25;;;0.60;;
49139;SDS011;34959;49.310;8.646;2024-02-04T08:37:09;1.98;;;0.50;;
49139;SDS011;34959;49.310;8.646;2024-02-04T08:39:34;4.03;;;0.40;;
49139;SDS011;34959;49.310;8.646;2024-02-04T08:42:00;1.58;;;0.50;;
49139;SDS011;34959;49.310;8.646;2024-02-04T08:44:25;2.63;;;0.60;;
49139;SDS011;34959;49.310;8.646;2024-02-04T08:46:51;3.72;;;0.50;;
49139;SDS011;34959;49.310;8.646;2024-02-04T08:49:16;4.47;;;0.50;;
49139;SDS011;34959;49.310;8.646;2024-02-04T08:51:42;0.60;;;0.50;;
49139;SDS011;34959;49.310;8.646;2024-02-04T08:54:07;1.48;;;0.63;;
49139;SDS011;34959;49.310;8.646;2024-02-04T08:56:33;3.63;;;0.50;;
49139;SDS011;34959;49.310;8.646;2024-02-04T08:58:58;0.93;;;0.40;;
49139;SDS011;34959;49.310;8.646;2024-02-04T09:01:24;3.17;;;0.40;;
49139;SDS011;34959;49.310;8.646;2024-02-04T09:03:50;2.85;;;0.43;;
49139;SDS011;34959;49.310;8.646;2024-02-04T09:06:15;2.50;;;0.57;;
49139;SDS011;34959;49.310;8.646;2024-02-04T09:08:41;0.65;;;0.35;;
49139;SDS011;34959;49.310;8.646;2024-02-04T09:11:06;1.08;;;0.40;;
49139;SDS011;34959;49.310;8.646;2024-02-04T09:13:32;2.35;;;0.50;;
49139;SDS011;34959;49.310;8.646;2024-02-04T09:15:57;3.10;;;0.60;;
49139;SDS011;34959;49.310;8.646;2024-02-04T09:18:23;1.63;;;0.55;;
49139;SDS011;34959;49.310;8.646;2024-02-04T09:20:48;1.65;;;0.52;;
49139;SDS011;34959;49.310;8.646;2024-02-04T09:23:13;4.25;;;0.50;;
49139;SDS011;34959;49.310;8.646;2024-02-04T09:25:39;2.17;;;1.45;;
49139;SDS011;34959;49.310;8.646;2024-02-04T09:28:04;3.75;;;1.88;;
49139;SDS011;34959;49.310;8.646;2024-02-04T09:30:30;4.85;;;2.20;;
49139;SDS011;34959;49.310;8.646;2024-02-04T09:32:56;2.13;;;1.55;;
49139;SDS011;34959;49.310;8.646;2024-02-04T09:35:21;2.97;;;2.10;;
49139;SDS011;34959;49.310;8.646;2024-02-04T09:37:47;2.17;;;1.80;;
49139;SDS011;34959;49.310;8.646;2024-02-04T09:40:12;2.08;;;1.60;;
49139;SDS011;34959;49.310;8.646;2024-02-04T09:42:38;4.00;;;1.80;;
49139;SDS011;34959;49.310;8.646;2024-02-04T09:45:03;1.92;;;1.30;;
49139;SDS011;34959;49.310;8.646;2024-02-04T09:47:29;3.80;;;1.40;;
49139;SDS011;34959;49.310;8.646;2024-02-04T09:49:57;4.53;;;1.50;;
49139;SDS011;34959;49.310;8.646;2024-02-04T09:52:25;1.90;;;1.00;;
49139;SDS011;34959;49.310;8.646;2024-02-04T09:54:55;4.22;;;1.30;;
49139;SDS011;34959;49.310;8.646;2024-02-04T09:57:24;1.77;;;1.10;;
49139;SDS011;34959;49.310;8.646;2024-02-04T09:59:50;3.00;;;1.25;;
49139;SDS011;34959;49.310;8.646;2024-02-04T10:02:15;4.28;;;1.40;;
49139;SDS011;34959;49.310;8.646;2024-02-04T10:04:43;10.82;;;1.33;;
49139;SDS011;34959;49.310;8.646;2024-02-04T10:07:08;2.20;;;1.20;;
49139;SDS011;34959;49.310;8.646;2024-02-04T10:09:34;2.55;;;1.05;;
49139;SDS011;34959;49.310;8.646;2024-02-04T10:11:59;3.35;;;1.10;;
49139;SDS011;34959;49.310;8.646;2024-02-04T10:14:25;2.63;;;1.20;;
49139;SDS011;34959;49.310;8.646;2024-02-04T10:16:50;1.65;;;1.05;;
49139;SDS011;34959;49.310;8.646;2024-02-04T10:19:16;6.47;;;1.25;;
49139;SDS011;34959;49.310;8.646;2024-02-04T10:21:41;1.83;;;1.05;;
49139;SDS011;34959;49.310;8.646;2024-02-04T10:24:10;1.30;;;0.90;;
49139;SDS011;34959;49.310;8.646;2024-02-04T10:26:36;1.40;;;1.00;;
49139;SDS011;34959;49.310;8.646;2024-02-04T10:29:02;2.50;;;1.00;;
49139;SDS011;34959;49.310;8.646;2024-02-04T10:31:27;1.35;;;0.98;;
49139;SDS011;34959;49.310;8.646;2024-02-04T10:33:54;2.30;;;1.10;;
49139;SDS011;34959;49.310;8.646;2024-02-04T10:36:19;1.52;;;0.98;;
49139;SDS011;34959;49.310;8.646;2024-02-04T10:38:45;1.75;;;1.10;;
49139;SDS011;34959;49.310;8.646;2024-02-04T10:41:14;1.40;;;0.88;;
49139;SDS011;34959;49.310;8.646;2024-02-04T10:43:41;2.10;;;0.98;;
49139;SDS011;34959;49.310;8.646;2024-02-04T10:48:43;1.65;;;0.90;;
49139;SDS011;34959;49.310;8.646;2024-02-04T10:51:14;1.85;;;0.90;;
49139;SDS011;34959;49.310;8.646;2024-02-04T10:53:44;1.75;;;1.00;;
49139;SDS011;34959;49.310;8.646;2024-02-04T10:56:18;1.63;;;1.02;;
49139;SDS011;34959;49.310;8.646;2024-02-04T10:58:46;1.10;;;0.80;;
49139;SDS011;34959;49.310;8.646;2024-02-04T11:01:12;2.08;;;1.00;;
49139;SDS011;34959;49.310;8.646;2024-02-04T11:03:38;1.52;;;1.00;;
49139;SDS011;34959;49.310;8.646;2024-02-04T11:06:04;1.17;;;0.70;;
49139;SDS011;34959;49.310;8.646;2024-02-04T11:08:31;1.30;;;0.80;;
49139;SDS011;34959;49.310;8.646;2024-02-04T11:10:56;1.63;;;0.80;;
49139;SDS011;34959;49.310;8.646;2024-02-04T11:13:22;1.42;;;0.85;;
49139;SDS011;34959;49.310;8.646;2024-02-04T11:15:48;1.33;;;0.80;;
49139;SDS011;34959;49.310;8.646;2024-02-04T11:18:20;2.60;;;0.98;;
49139;SDS011;34959;49.310;8.646;2024-02-04T11:23:43;8.35;;;0.90;;
49139;SDS011;34959;49.310;8.646;2024-02-04T11:26:16;6.35;;;1.00;;
49139;SDS011;34959;49.310;8.646;2024-02-04T11:28:42;1.05;;;0.80;;
49139;SDS011;34959;49.310;8.646;2024-02-04T11:31:14;1.10;;;0.70;;
49139;SDS011;34959;49.310;8.646;2024-02-04T11:33:41;1.77;;;1.15;;
49139;SDS011;34959;49.310;8.646;2024-02-04T11:36:06;1.15;;;0.82;;
49139;SDS011;34959;49.310;8.646;2024-02-04T11:38:35;2.53;;;0.88;;
49139;SDS011;34959;49.310;8.646;2024-02-04T11:41:04;1.00;;;0.70;;
49139;SDS011;34959;49.310;8.646;2024-02-04T11:43:32;1.83;;;0.80;;
49139;SDS011;34959;49.310;8.646;2024-02-04T11:45:58;0.93;;;0.70;;
49139;SDS011;34959;49.310;8.646;2024-02-04T11:48:28;1.45;;;1.02;;
49139;SDS011;34959;49.310;8.646;2024-02-04T11:50:56;1.90;;;1.00;;
49139;SDS011;34959;49.310;8.646;2024-02-04T11:53:23;1.00;;;0.68;;
49139;SDS011;34959;49.310;8.646;2024-02-04T11:55:51;1.05;;;0.63;;
49139;SDS011;34959;49.310;8.646;2024-02-04T11:58:18;0.52;;;0.52;;
49139;SDS011;34959;49.310;8.646;2024-02-04T12:00:43;2.35;;;0.90;;
49139;SDS011;34959;49.310;8.646;2024-02-04T12:03:10;0.80;;;0.63;;
49139;SDS011;34959;49.310;8.646;2024-02-04T12:05:36;2.60;;;0.68;;
49139;SDS011;34959;49.310;8.646;2024-02-04T12:08:04;0.80;;;0.50;;
49139;SDS011;34959;49.310;8.646;2024-02-04T12:10:31;0.98;;;0.55;;
49139;SDS011;34959;49.310;8.646;2024-02-04T12:12:58;0.95;;;0.70;;
49139;SDS011;34959;49.310;8.646;2024-02-04T12:15:24;0.88;;;0.70;;
49139;SDS011;34959;49.310;8.646;2024-02-04T12:17:50;1.08;;;0.73;;
49139;SDS011;34959;49.310;8.646;2024-02-04T12:20:15;1.00;;;0.70;;
49139;SDS011;34959;49.310;8.646;2024-02-04T12:22:41;3.45;;;0.80;;
49139;SDS011;34959;49.310;8.646;2024-02-04T12:25:06;0.77;;;0.60;;
49139;SDS011;34959;49.310;8.646;2024-02-04T12:27:32;0.70;;;0.50;;
49139;SDS011;34959;49.310;8.646;2024-02-04T12:29:58;1.17;;;0.60;;
49139;SDS011;34959;49.310;8.646;2024-02-04T12:32:24;1.25;;;0.77;;
49139;SDS011;34959;49.310;8.646;2024-02-04T12:34:50;1.05;;;0.60;;
49139;SDS011;34959;49.310;8.646;2024-02-04T12:37:19;1.10;;;0.52;;
49139;SDS011;34959;49.310;8.646;2024-02-04T12:39:45;2.90;;;0.63;;
49139;SDS011;34959;49.310;8.646;2024-02-04T12:42:14;0.82;;;0.50;;
49139;SDS011;34959;49.310;8.646;2024-02-04T12:44:43;2.58;;;0.50;;
49139;SDS011;34959;49.310;8.646;2024-02-04T12:47:09;2.78;;;0.90;;
49139;SDS011;34959;49.310;8.646;2024-02-04T12:49:35;1.50;;;0.52;;
49139;SDS011;34959;49.310;8.646;2024-02-04T12:52:04;1.95;;;0.52;;
49139;SDS011;34959;49.310;8.646;2024-02-04T12:54:30;1.75;;;0.60;;
49139;SDS011;34959;49.310;8.646;2024-02-04T12:56:56;1.50;;;0.70;;
49139;SDS011;34959;49.310;8.646;2024-02-04T12:59:25;1.02;;;0.50;;
49139;SDS011;34959;49.310;8.646;2024-02-04T13:02:06;1.92;;;0.70;;
49139;SDS011;34959;49.310;8.646;2024-02-04T13:04:35;1.17;;;0.70;;
49139;SDS011;34959;49.310;8.646;2024-02-04T13:07:06;2.75;;;0.70;;
49139;SDS011;34959;49.310;8.646;2024-02-04T13:09:32;0.82;;;0.60;;
49139;SDS011;34959;49.310;8.646;2024-02-04T13:12:07;1.17;;;0.68;;
49139;SDS011;34959;49.310;8.646;2024-02-04T13:14:37;1.70;;;0.68;;
49139;SDS011;34959;49.310;8.646;2024-02-04T13:17:03;0.88;;;0.55;;
49139;SDS011;34959;49.310;8.646;2024-02-04T13:19:33;1.98;;;0.57;;
49139;SDS011;34959;49.310;8.646;2024-02-04T13:22:02;2.30;;;0.45;;
49139;SDS011;34959;49.310;8.646;2024-02-04T13:24:31;2.15;;;0.50;;
49139;SDS011;34959;49.310;8.646;2024-02-04T13:26:56;0.77;;;0.50;;
49139;SDS011;34959;49.310;8.646;2024-02-04T13:29:22;2.13;;;0.60;;
49139;SDS011;34959;49.310;8.646;2024-02-04T13:31:48;0.55;;;0.50;;
49139;SDS011;34959;49.310;8.646;2024-02-04T13:34:13;1.50;;;0.70;;
49139;SDS011;34959;49.310;8.646;2024-02-04T13:36:38;1.08;;;0.50;;
49139;SDS011;34959;49.310;8.646;2024-02-04T13:39:04;3.33;;;0.60;;
49139;SDS011;34959;49.310;8.646;2024-02-04T13:41:31;0.70;;;0.50;;
49139;SDS011;34959;49.310;8.646;2024-02-04T13:43:56;0.95;;;0.60;;
49139;SDS011;34959;49.310;8.646;2024-02-04T13:46:22;1.48;;;0.50;;
49139;SDS011;34959;49.310;8.646;2024-02-04T13:48:47;2.17;;;0.63;;
49139;SDS011;34959;49.310;8.646;2024-02-04T13:51:13;1.00;;;0.50;;
49139;SDS011;34959;49.310;8.646;2024-02-04T13:53:38;0.90;;;0.47;;
49139;SDS011;34959;49.310;8.646;2024-02-04T13:56:03;0.80;;;0.50;;
49139;SDS011;34959;49.310;8.646;2024-02-04T13:58:29;1.77;;;0.57;;
49139;SDS011;34959;49.310;8.646;2024-02-04T14:00:54;0.93;;;0.50;;
49139;SDS011;34959;49.310;8.646;2024-02-04T14:03:20;1.10;;;0.50;;
49139;SDS011;34959;49.310;8.646;2024-02-04T14:05:45;0.55;;;0.43;;
49139;SDS011;34959;49.310;8.646;2024-02-04T14:08:11;1.05;;;0.68;;
49139;SDS011;34959;49.310;8.646;2024-02-04T14:10:36;1.77;;;0.40;;
49139;SDS011;34959;49.310;8.646;2024-02-04T14:13:02;0.98;;;0.75;;
49139;SDS011;34959;49.310;8.646;2024-02-04T14:15:30;1.90;;;0.50;;
49139;SDS011;34959;49.310;8.646;2024-02-04T14:17:56;1.48;;;0.40;;
49139;SDS011;34959;49.310;8.646;2024-02-04T14:20:22;1.00;;;0.50;;
49139;SDS011;34959;49.310;8.646;2024-02-04T14:22:48;0.70;;;0.40;;
49139;SDS011;34959;49.310;8.646;2024-02-04T14:25:13;0.65;;;0.40;;
49139;SDS011;34959;49.310;8.646;2024-02-04T14:27:39;1.05;;;0.52;;
49139;SDS011;34959;49.310;8.646;2024-02-04T14:30:04;0.95;;;0.40;;
49139;SDS011;34959;49.310;8.646;2024-02-04T14:32:32;0.80;;;0.50;;
49139;SDS011;34959;49.310;8.646;2024-02-04T14:34:57;0.30;;;0.30;;
49139;SDS011;34959;49.310;8.646;2024-02-04T14:37:23;0.95;;;0.50;;
49139;SDS011;34959;49.310;8.646;2024-02-04T14:39:48;2.22;;;0.77;;
49139;SDS011;34959;49.310;8.646;2024-02-04T14:42:15;1.70;;;0.52;;
49139;SDS011;34959;49.310;8.646;2024-02-04T14:44:43;1.00;;;0.40;;
49139;SDS011;34959;49.310;8.646;2024-02-04T14:47:09;0.75;;;0.50;;
49139;SDS011;34959;49.310;8.646;2024-02-04T14:49:35;0.82;;;0.50;;